Aérodrome :
LOGIN :

S'inscrire | Disclaimer

   EN    FR    IT 

 










Légende :    VFR   VFR Marginal   IFR   IFR Intensif   IFR Très Intensif
Visi : 
Plafond : 
>= 8 km
>= 3000ft
5 à 8 km
1000 à 3000 ft
1500m à 5 km
500 à 1000 ft
800 à 1500m
200 à 500 ft
< 800m
< 200 ft
Symboles :   Orages  Brouillard  Fortes neiges  Fortes précipitations  Vent > 20 kt
SIGMETs :   Divers  Orages  Givrage  Turbulence  Onde Orograph.  Cendres Volcan.







- Altitude de l'aérodrome : 240 ft
- Code IATA : VLC


LEVC - Valencia Manises

DERNIER METAR :
  • 181700Z 29006KT 220V330 4000 SHRA FEW020 FEW025TCU BKN030 17/16 Q1008 TEMPO TSRA FEW024CB

METARs EXPIRÉS :
  • 181635Z 31004KT 260V360 2500 +SHRA FEW020 FEW025TCU OVC030 17/16 Q1008 TEMPO TSRA FEW024CB
  • 181603Z 36004KT 250V040 2500 +SHRA VCTS FEW020 FEW024CB FEW025TCU OVC030 17/16 Q1008 WS R30 NOSIG
  • 181537Z VRB01KT 4000 TS SHRA FEW015 FEW024CB FEW025TCU OVC028 16/16 Q1008 WS R30 NOSIG
  • 181530Z VRB04KT 1000 R30/1800N TS +SHRA FEW012 FEW024CB FEW025TCU OVC028 16/16 Q1008 WS R30 NOSIG
  • 181517Z 18012KT 0300 R30/P2000 TS +SHRA FEW018 FEW024CB FEW025TCU BKN030 16/16 Q1009 WS R30 NOSIG
  • 181508Z 14011KT 1000 R30/P2000 TS +SHRA FEW018 FEW024CB FEW025TCU BKN030 17/16 Q1008 WS R30 NOSIG
  • 181438Z 30013KT 5000 SHRA FEW018 FEW025TCU BKN035 17/16 Q1008 TEMPO 4000 TSRA FEW025CB

TAF TAF LEVC
Valide du 18 à 18h jusqu'au 19 à 18h UTC


181700Z 1818/1918 30005KT 9999 SCT025 TX21/1912Z TN15/1906Z
TEMPO 1818/1904 4000 SHRA BKN014 SCT020TCU
PROB40
TEMPO 1818/1904 4000 TSRA SCT020CB BKN025
PROB30
TEMPO 1904/1912 4000 SHRA FEW022TCU
BECMG 1910/1912 04008KT
Pas de NOTAMs connus pour ce terrain.
1 SIGMET publié pour la FIR Barcelona (LECB) :
 
Orages noyés dans la masse
LECB SIGMET 7 VALID 181611/181800 LEVA
LECB BARCELONA FIR/UIR EMBD TS OBS AT 1611Z WI N4140 E00030 - N3940 E00420 - N3640 W00140 - N4140 E00030 TOP FL320 MOV W 10KT NC=



MET'MAP, la Météo Aéronautique d'un coup d'oeil ! - Copyright ORBIFLY Décembre 2007 - Disclaimer

ORBIFLY MET'MAP TEAM :

Programmation & Développement : Alexandra Zaïnal
Conception & Développement : Baudouin d'Aumeries
Co-Programmation & Développement : Marc-Olivier Méhu
Soutien technique & logistique : Manuel Goepfert

Contact : metmap@orbifly.com




SOURCES & CREDITS :

   NOAA